sensor_id;sensor_type;location;lat;lon;timestamp;temperature;humidity
33492;DHT22;20010;51.488;7.232;2022-12-11T00:00:08;-0.30;99.90
33492;DHT22;20010;51.488;7.232;2022-12-11T00:02:35;-0.30;99.90
33492;DHT22;20010;51.488;7.232;2022-12-11T00:05:02;-0.30;99.90
33492;DHT22;20010;51.488;7.232;2022-12-11T00:07:29;-0.30;99.90
33492;DHT22;20010;51.488;7.232;2022-12-11T00:09:56;-0.30;99.90
33492;DHT22;20010;51.488;7.232;2022-12-11T00:12:23;-0.30;99.90
33492;DHT22;20010;51.488;7.232;2022-12-11T00:14:49;-0.40;99.90
33492;DHT22;20010;51.488;7.232;2022-12-11T00:17:16;-0.40;99.90
33492;DHT22;20010;51.488;7.232;2022-12-11T00:19:43;-0.50;99.90
33492;DHT22;20010;51.488;7.232;2022-12-11T00:22:13;-0.50;99.90
33492;DHT22;20010;51.488;7.232;2022-12-11T00:24:39;-0.50;99.90
33492;DHT22;20010;51.488;7.232;2022-12-11T00:27:06;-0.50;99.90
33492;DHT22;20010;51.488;7.232;2022-12-11T00:29:33;-0.50;99.90
33492;DHT22;20010;51.488;7.232;2022-12-11T00:32:00;-0.50;99.90
33492;DHT22;20010;51.488;7.232;2022-12-11T00:34:27;-0.50;99.90
33492;DHT22;20010;51.488;7.232;2022-12-11T00:36:54;-0.50;99.90
33492;DHT22;20010;51.488;7.232;2022-12-11T00:39:20;-0.50;99.90
33492;DHT22;20010;51.488;7.232;2022-12-11T00:41:47;-0.50;99.90
33492;DHT22;20010;51.488;7.232;2022-12-11T00:44:14;-0.50;99.90
33492;DHT22;20010;51.488;7.232;2022-12-11T00:46:41;-0.50;99.90
33492;DHT22;20010;51.488;7.232;2022-12-11T00:49:07;-0.50;99.90
33492;DHT22;20010;51.488;7.232;2022-12-11T00:51:34;-0.50;99.90
33492;DHT22;20010;51.488;7.232;2022-12-11T00:54:02;-0.50;99.90
33492;DHT22;20010;51.488;7.232;2022-12-11T00:56:29;-0.40;99.90
33492;DHT22;20010;51.488;7.232;2022-12-11T00:58:56;-0.40;99.90
33492;DHT22;20010;51.488;7.232;2022-12-11T01:01:24;-0.40;99.90
33492;DHT22;20010;51.488;7.232;2022-12-11T01:03:52;-0.40;99.90
33492;DHT22;20010;51.488;7.232;2022-12-11T01:06:22;-0.30;99.90
33492;DHT22;20010;51.488;7.232;2022-12-11T01:08:50;-0.30;99.90
33492;DHT22;20010;51.488;7.232;2022-12-11T01:11:38;-0.40;99.90
33492;DHT22;20010;51.488;7.232;2022-12-11T01:14:06;-0.30;99.90
33492;DHT22;20010;51.488;7.232;2022-12-11T01:16:33;-0.30;99.90
33492;DHT22;20010;51.488;7.232;2022-12-11T01:19:00;-0.30;99.90
33492;DHT22;20010;51.488;7.232;2022-12-11T01:21:26;-0.30;99.90
33492;DHT22;20010;51.488;7.232;2022-12-11T01:23:53;-0.30;99.90
33492;DHT22;20010;51.488;7.232;2022-12-11T01:26:20;-0.30;99.90
33492;DHT22;20010;51.488;7.232;2022-12-11T01:28:51;-0.30;99.90
33492;DHT22;20010;51.488;7.232;2022-12-11T01:31:19;-0.30;99.90
33492;DHT22;20010;51.488;7.232;2022-12-11T01:33:45;-0.20;99.90
33492;DHT22;20010;51.488;7.232;2022-12-11T01:36:18;-0.20;99.90
33492;DHT22;20010;51.488;7.232;2022-12-11T01:38:46;-0.20;99.90
33492;DHT22;20010;51.488;7.232;2022-12-11T01:41:14;-0.30;99.90
33492;DHT22;20010;51.488;7.232;2022-12-11T01:43:58;-0.20;99.90
33492;DHT22;20010;51.488;7.232;2022-12-11T01:46:27;-0.20;99.90
33492;DHT22;20010;51.488;7.232;2022-12-11T01:48:54;-0.30;99.90
33492;DHT22;20010;51.488;7.232;2022-12-11T01:51:23;-0.30;99.90
33492;DHT22;20010;51.488;7.232;2022-12-11T01:53:58;-0.20;99.90
33492;DHT22;20010;51.488;7.232;2022-12-11T01:56:26;-0.20;99.90
33492;DHT22;20010;51.488;7.232;2022-12-11T01:58:56;-0.20;99.90
33492;DHT22;20010;51.488;7.232;2022-12-11T02:04:21;-0.20;99.90
33492;DHT22;20010;51.488;7.232;2022-12-11T02:06:51;-0.20;99.90
33492;DHT22;20010;51.488;7.232;2022-12-11T02:09:28;-0.20;99.90
33492;DHT22;20010;51.488;7.232;2022-12-11T02:29:01;-0.20;99.90
33492;DHT22;20010;51.488;7.232;2022-12-11T02:36:26;-0.20;99.90
33492;DHT22;20010;51.488;7.232;2022-12-11T02:38:56;-0.10;99.90
33492;DHT22;20010;51.488;7.232;2022-12-11T02:41:26;-0.10;99.90
33492;DHT22;20010;51.488;7.232;2022-12-11T02:43:55;-0.20;99.90
33492;DHT22;20010;51.488;7.232;2022-12-11T02:46:24;-0.10;99.90
33492;DHT22;20010;51.488;7.232;2022-12-11T02:48:52;-0.10;99.90
33492;DHT22;20010;51.488;7.232;2022-12-11T02:51:24;-0.10;99.90
33492;DHT22;20010;51.488;7.232;2022-12-11T02:53:55;-0.10;99.90
33492;DHT22;20010;51.488;7.232;2022-12-11T02:56:28;-0.10;99.90
33492;DHT22;20010;51.488;7.232;2022-12-11T02:59:00;-0.10;99.90
33492;DHT22;20010;51.488;7.232;2022-12-11T03:01:28;-0.10;99.90
33492;DHT22;20010;51.488;7.232;2022-12-11T03:03:55;-0.10;99.90
33492;DHT22;20010;51.488;7.232;2022-12-11T03:06:29;-0.10;99.90
33492;DHT22;20010;51.488;7.232;2022-12-11T03:08:57;-0.10;99.90
33492;DHT22;20010;51.488;7.232;2022-12-11T03:11:24;-0.10;99.90
33492;DHT22;20010;51.488;7.232;2022-12-11T03:13:51;0.00;99.90
33492;DHT22;20010;51.488;7.232;2022-12-11T03:19:16;-0.10;99.90
33492;DHT22;20010;51.488;7.232;2022-12-11T03:21:49;-0.10;99.90
33492;DHT22;20010;51.488;7.232;2022-12-11T03:24:42;-0.10;99.90
33492;DHT22;20010;51.488;7.232;2022-12-11T03:29:59;-0.10;99.90
33492;DHT22;20010;51.488;7.232;2022-12-11T03:32:50;-0.10;99.90
33492;DHT22;20010;51.488;7.232;2022-12-11T03:35:22;-0.10;99.90
33492;DHT22;20010;51.488;7.232;2022-12-11T03:37:52;-0.10;99.90
33492;DHT22;20010;51.488;7.232;2022-12-11T03:40:21;0.00;99.90
33492;DHT22;20010;51.488;7.232;2022-12-11T03:42:51;-0.10;99.90
33492;DHT22;20010;51.488;7.232;2022-12-11T03:45:19;-0.10;99.90
33492;DHT22;20010;51.488;7.232;2022-12-11T03:47:48;0.00;99.90
33492;DHT22;20010;51.488;7.232;2022-12-11T03:50:17;0.00;99.90
33492;DHT22;20010;51.488;7.232;2022-12-11T03:52:46;0.00;99.90
33492;DHT22;20010;51.488;7.232;2022-12-11T03:55:16;0.00;99.90
33492;DHT22;20010;51.488;7.232;2022-12-11T03:57:43;0.00;99.90
33492;DHT22;20010;51.488;7.232;2022-12-11T04:00:14;0.00;99.90
33492;DHT22;20010;51.488;7.232;2022-12-11T04:02:41;0.00;99.90
33492;DHT22;20010;51.488;7.232;2022-12-11T04:05:09;0.00;99.90
33492;DHT22;20010;51.488;7.232;2022-12-11T04:07:37;0.10;99.90
33492;DHT22;20010;51.488;7.232;2022-12-11T04:10:04;0.00;99.90
33492;DHT22;20010;51.488;7.232;2022-12-11T04:12:31;0.00;99.90
33492;DHT22;20010;51.488;7.232;2022-12-11T04:14:58;0.00;99.90
33492;DHT22;20010;51.488;7.232;2022-12-11T04:17:33;0.10;99.90
33492;DHT22;20010;51.488;7.232;2022-12-11T04:20:19;0.10;99.90
33492;DHT22;20010;51.488;7.232;2022-12-11T04:23:10;0.00;99.90
33492;DHT22;20010;51.488;7.232;2022-12-11T04:26:11;0.00;99.90
33492;DHT22;20010;51.488;7.232;2022-12-11T04:28:38;0.00;99.90
33492;DHT22;20010;51.488;7.232;2022-12-11T04:31:06;0.00;99.90
33492;DHT22;20010;51.488;7.232;2022-12-11T04:33:36;0.10;99.90
33492;DHT22;20010;51.488;7.232;2022-12-11T04:36:03;0.10;99.90
33492;DHT22;20010;51.488;7.232;2022-12-11T04:38:29;0.00;99.90
33492;DHT22;20010;51.488;7.232;2022-12-11T04:41:01;0.10;99.90
33492;DHT22;20010;51.488;7.232;2022-12-11T04:43:28;0.00;99.90
33492;DHT22;20010;51.488;7.232;2022-12-11T04:46:08;0.10;99.90
33492;DHT22;20010;51.488;7.232;2022-12-11T04:48:36;0.10;99.90
33492;DHT22;20010;51.488;7.232;2022-12-11T04:51:04;0.10;99.90
33492;DHT22;20010;51.488;7.232;2022-12-11T04:53:31;0.10;99.90
33492;DHT22;20010;51.488;7.232;2022-12-11T04:55:58;0.10;99.90
33492;DHT22;20010;51.488;7.232;2022-12-11T04:58:25;0.10;99.90
33492;DHT22;20010;51.488;7.232;2022-12-11T05:00:52;0.10;99.90
33492;DHT22;20010;51.488;7.232;2022-12-11T05:03:19;0.20;99.90
33492;DHT22;20010;51.488;7.232;2022-12-11T05:05:48;0.20;99.90
33492;DHT22;20010;51.488;7.232;2022-12-11T05:08:15;0.20;99.90
33492;DHT22;20010;51.488;7.232;2022-12-11T05:10:42;0.20;99.90
33492;DHT22;20010;51.488;7.232;2022-12-11T05:13:15;0.30;99.90
33492;DHT22;20010;51.488;7.232;2022-12-11T05:15:42;0.30;99.90
33492;DHT22;20010;51.488;7.232;2022-12-11T05:18:09;0.30;99.90
33492;DHT22;20010;51.488;7.232;2022-12-11T05:20:35;0.30;99.90
33492;DHT22;20010;51.488;7.232;2022-12-11T05:23:02;0.30;99.90
33492;DHT22;20010;51.488;7.232;2022-12-11T05:25:29;0.30;99.90
33492;DHT22;20010;51.488;7.232;2022-12-11T05:27:56;0.30;99.90
33492;DHT22;20010;51.488;7.232;2022-12-11T05:30:22;0.30;99.90
33492;DHT22;20010;51.488;7.232;2022-12-11T05:32:49;0.30;99.90
33492;DHT22;20010;51.488;7.232;2022-12-11T05:35:16;0.30;99.90
33492;DHT22;20010;51.488;7.232;2022-12-11T05:37:43;0.40;99.90
33492;DHT22;20010;51.488;7.232;2022-12-11T05:40:10;0.30;99.90
33492;DHT22;20010;51.488;7.232;2022-12-11T05:42:40;0.30;99.90
33492;DHT22;20010;51.488;7.232;2022-12-11T05:45:07;0.30;99.90
33492;DHT22;20010;51.488;7.232;2022-12-11T05:47:34;0.30;99.90
33492;DHT22;20010;51.488;7.232;2022-12-11T05:50:01;0.30;99.90
33492;DHT22;20010;51.488;7.232;2022-12-11T05:52:30;0.30;99.90
33492;DHT22;20010;51.488;7.232;2022-12-11T05:54:57;0.30;99.90
33492;DHT22;20010;51.488;7.232;2022-12-11T05:57:23;0.40;99.90
33492;DHT22;20010;51.488;7.232;2022-12-11T05:59:50;0.40;99.90
33492;DHT22;20010;51.488;7.232;2022-12-11T06:02:17;0.40;99.90
33492;DHT22;20010;51.488;7.232;2022-12-11T06:04:44;0.40;99.90
33492;DHT22;20010;51.488;7.232;2022-12-11T06:07:11;0.40;99.90
33492;DHT22;20010;51.488;7.232;2022-12-11T06:09:38;0.40;99.90
33492;DHT22;20010;51.488;7.232;2022-12-11T06:12:05;0.40;99.90
33492;DHT22;20010;51.488;7.232;2022-12-11T06:14:32;0.40;99.90
33492;DHT22;20010;51.488;7.232;2022-12-11T06:16:58;0.40;99.90
33492;DHT22;20010;51.488;7.232;2022-12-11T06:19:25;0.40;99.90
33492;DHT22;20010;51.488;7.232;2022-12-11T06:21:56;0.40;99.90
33492;DHT22;20010;51.488;7.232;2022-12-11T06:24:23;0.50;99.90
33492;DHT22;20010;51.488;7.232;2022-12-11T06:26:50;0.50;99.90
33492;DHT22;20010;51.488;7.232;2022-12-11T06:29:16;0.50;99.90
33492;DHT22;20010;51.488;7.232;2022-12-11T06:31:43;0.50;99.90
33492;DHT22;20010;51.488;7.232;2022-12-11T06:34:11;0.50;99.90
33492;DHT22;20010;51.488;7.232;2022-12-11T06:36:39;0.50;99.90
33492;DHT22;20010;51.488;7.232;2022-12-11T06:39:06;0.50;99.90
33492;DHT22;20010;51.488;7.232;2022-12-11T06:41:33;0.50;99.90
33492;DHT22;20010;51.488;7.232;2022-12-11T06:43:59;0.50;99.90
33492;DHT22;20010;51.488;7.232;2022-12-11T06:46:26;0.50;99.90
33492;DHT22;20010;51.488;7.232;2022-12-11T06:48:53;0.50;99.90
33492;DHT22;20010;51.488;7.232;2022-12-11T06:51:22;0.50;99.90
33492;DHT22;20010;51.488;7.232;2022-12-11T06:53:53;0.50;99.90
33492;DHT22;20010;51.488;7.232;2022-12-11T06:56:20;0.50;99.90
33492;DHT22;20010;51.488;7.232;2022-12-11T06:58:48;0.50;99.90
33492;DHT22;20010;51.488;7.232;2022-12-11T07:01:25;0.50;99.90
33492;DHT22;20010;51.488;7.232;2022-12-11T07:03:57;0.50;99.90
33492;DHT22;20010;51.488;7.232;2022-12-11T07:06:25;0.50;99.90
33492;DHT22;20010;51.488;7.232;2022-12-11T07:08:52;0.50;99.90
33492;DHT22;20010;51.488;7.232;2022-12-11T07:11:20;0.50;99.90
33492;DHT22;20010;51.488;7.232;2022-12-11T07:13:47;0.50;99.90
33492;DHT22;20010;51.488;7.232;2022-12-11T07:16:15;0.50;99.90
33492;DHT22;20010;51.488;7.232;2022-12-11T07:18:46;0.50;99.90
33492;DHT22;20010;51.488;7.232;2022-12-11T07:21:14;0.50;99.90
33492;DHT22;20010;51.488;7.232;2022-12-11T07:23:41;0.50;99.90
33492;DHT22;20010;51.488;7.232;2022-12-11T07:26:10;0.50;99.90
33492;DHT22;20010;51.488;7.232;2022-12-11T07:28:38;0.60;99.90
33492;DHT22;20010;51.488;7.232;2022-12-11T07:33:33;0.60;99.90
33492;DHT22;20010;51.488;7.232;2022-12-11T07:36:04;0.50;99.90
33492;DHT22;20010;51.488;7.232;2022-12-11T07:38:31;0.50;99.90
33492;DHT22;20010;51.488;7.232;2022-12-11T07:41:03;0.60;99.90
33492;DHT22;20010;51.488;7.232;2022-12-11T07:43:31;0.60;99.90
33492;DHT22;20010;51.488;7.232;2022-12-11T07:46:03;0.60;99.90
33492;DHT22;20010;51.488;7.232;2022-12-11T07:48:30;0.60;99.90
33492;DHT22;20010;51.488;7.232;2022-12-11T07:53:48;0.60;99.90
33492;DHT22;20010;51.488;7.232;2022-12-11T07:56:16;0.60;99.90
33492;DHT22;20010;51.488;7.232;2022-12-11T07:58:43;0.60;99.90
33492;DHT22;20010;51.488;7.232;2022-12-11T08:01:16;0.60;99.90
33492;DHT22;20010;51.488;7.232;2022-12-11T08:03:44;0.60;99.90
33492;DHT22;20010;51.488;7.232;2022-12-11T08:06:11;0.60;99.90
33492;DHT22;20010;51.488;7.232;2022-12-11T08:08:38;0.60;99.90
33492;DHT22;20010;51.488;7.232;2022-12-11T08:11:10;0.60;99.90
33492;DHT22;20010;51.488;7.232;2022-12-11T08:13:37;0.60;99.90
33492;DHT22;20010;51.488;7.232;2022-12-11T08:16:05;0.60;99.90
33492;DHT22;20010;51.488;7.232;2022-12-11T08:18:33;0.60;99.90
33492;DHT22;20010;51.488;7.232;2022-12-11T08:21:15;0.60;99.90
33492;DHT22;20010;51.488;7.232;2022-12-11T08:23:42;0.60;99.90
33492;DHT22;20010;51.488;7.232;2022-12-11T08:26:13;0.60;99.90
33492;DHT22;20010;51.488;7.232;2022-12-11T08:28:40;0.50;99.90
33492;DHT22;20010;51.488;7.232;2022-12-11T08:31:09;0.60;99.90
33492;DHT22;20010;51.488;7.232;2022-12-11T08:33:38;0.60;99.90
33492;DHT22;20010;51.488;7.232;2022-12-11T08:36:07;0.60;99.90
33492;DHT22;20010;51.488;7.232;2022-12-11T08:38:34;0.60;99.90
33492;DHT22;20010;51.488;7.232;2022-12-11T08:43:38;0.60;99.90
33492;DHT22;20010;51.488;7.232;2022-12-11T08:46:07;0.60;99.90
33492;DHT22;20010;51.488;7.232;2022-12-11T08:48:36;0.60;99.90
33492;DHT22;20010;51.488;7.232;2022-12-11T08:51:06;0.60;99.90
33492;DHT22;20010;51.488;7.232;2022-12-11T08:53:33;0.60;99.90
33492;DHT22;20010;51.488;7.232;2022-12-11T08:56:05;0.60;99.90
33492;DHT22;20010;51.488;7.232;2022-12-11T08:58:32;0.60;99.90
33492;DHT22;20010;51.488;7.232;2022-12-11T09:00:59;0.60;99.90
33492;DHT22;20010;51.488;7.232;2022-12-11T09:03:26;0.60;99.90
33492;DHT22;20010;51.488;7.232;2022-12-11T09:05:52;0.70;99.90
33492;DHT22;20010;51.488;7.232;2022-12-11T09:08:19;0.70;99.90
33492;DHT22;20010;51.488;7.232;2022-12-11T09:10:46;0.70;99.90
33492;DHT22;20010;51.488;7.232;2022-12-11T09:13:13;0.70;99.90
33492;DHT22;20010;51.488;7.232;2022-12-11T09:15:40;0.70;99.90
33492;DHT22;20010;51.488;7.232;2022-12-11T09:18:07;0.70;99.90
33492;DHT22;20010;51.488;7.232;2022-12-11T09:20:34;0.70;99.90
33492;DHT22;20010;51.488;7.232;2022-12-11T09:23:01;0.70;99.90
33492;DHT22;20010;51.488;7.232;2022-12-11T09:25:28;0.70;99.90
33492;DHT22;20010;51.488;7.232;2022-12-11T09:27:55;0.60;99.90
33492;DHT22;20010;51.488;7.232;2022-12-11T09:30:22;0.70;99.90
33492;DHT22;20010;51.488;7.232;2022-12-11T09:32:49;0.70;99.90
33492;DHT22;20010;51.488;7.232;2022-12-11T09:35:16;0.70;99.90
33492;DHT22;20010;51.488;7.232;2022-12-11T09:37:43;0.70;99.90
33492;DHT22;20010;51.488;7.232;2022-12-11T09:40:11;0.70;99.90
33492;DHT22;20010;51.488;7.232;2022-12-11T09:45:15;0.70;99.90
33492;DHT22;20010;51.488;7.232;2022-12-11T09:47:48;0.70;99.90
33492;DHT22;20010;51.488;7.232;2022-12-11T09:50:29;0.70;99.90
33492;DHT22;20010;51.488;7.232;2022-12-11T09:58:22;0.80;99.90
33492;DHT22;20010;51.488;7.232;2022-12-11T10:01:54;0.80;99.90
33492;DHT22;20010;51.488;7.232;2022-12-11T10:07:27;0.80;99.90
33492;DHT22;20010;51.488;7.232;2022-12-11T10:18:07;0.70;99.90
33492;DHT22;20010;51.488;7.232;2022-12-11T10:20:36;0.70;99.90
33492;DHT22;20010;51.488;7.232;2022-12-11T10:23:17;0.70;99.90
33492;DHT22;20010;51.488;7.232;2022-12-11T10:26:19;0.60;99.90
33492;DHT22;20010;51.488;7.232;2022-12-11T10:28:46;0.60;99.90
33492;DHT22;20010;51.488;7.232;2022-12-11T10:34:02;0.60;99.90
33492;DHT22;20010;51.488;7.232;2022-12-11T10:36:32;0.60;99.90
33492;DHT22;20010;51.488;7.232;2022-12-11T10:39:00;0.70;99.90
33492;DHT22;20010;51.488;7.232;2022-12-11T10:41:41;0.70;99.90
33492;DHT22;20010;51.488;7.232;2022-12-11T10:44:18;0.70;99.90
33492;DHT22;20010;51.488;7.232;2022-12-11T10:46:47;0.70;99.90
33492;DHT22;20010;51.488;7.232;2022-12-11T10:49:26;0.70;99.90
33492;DHT22;20010;51.488;7.232;2022-12-11T10:51:54;0.60;99.90
33492;DHT22;20010;51.488;7.232;2022-12-11T10:54:34;0.60;99.90
33492;DHT22;20010;51.488;7.232;2022-12-11T10:57:05;0.60;99.90
33492;DHT22;20010;51.488;7.232;2022-12-11T10:59:46;0.60;99.90
33492;DHT22;20010;51.488;7.232;2022-12-11T11:02:31;0.70;99.90
33492;DHT22;20010;51.488;7.232;2022-12-11T11:05:14;0.70;99.90
33492;DHT22;20010;51.488;7.232;2022-12-11T11:07:41;0.70;99.90
33492;DHT22;20010;51.488;7.232;2022-12-11T11:12:40;0.70;99.90
33492;DHT22;20010;51.488;7.232;2022-12-11T11:15:14;0.80;99.90
33492;DHT22;20010;51.488;7.232;2022-12-11T11:17:47;0.70;99.90
33492;DHT22;20010;51.488;7.232;2022-12-11T11:20:27;0.70;99.90
33492;DHT22;20010;51.488;7.232;2022-12-11T11:22:56;0.70;99.90
33492;DHT22;20010;51.488;7.232;2022-12-11T11:25:26;0.70;99.90
33492;DHT22;20010;51.488;7.232;2022-12-11T11:30:31;0.80;99.90
33492;DHT22;20010;51.488;7.232;2022-12-11T11:33:03;0.70;99.90
33492;DHT22;20010;51.488;7.232;2022-12-11T11:35:31;0.70;99.90
33492;DHT22;20010;51.488;7.232;2022-12-11T11:38:17;0.70;99.90
33492;DHT22;20010;51.488;7.232;2022-12-11T11:46:14;0.70;99.90
33492;DHT22;20010;51.488;7.232;2022-12-11T11:51:26;0.70;99.90
33492;DHT22;20010;51.488;7.232;2022-12-11T11:53:57;0.70;99.90
33492;DHT22;20010;51.488;7.232;2022-12-11T11:56:26;0.70;99.90
33492;DHT22;20010;51.488;7.232;2022-12-11T11:59:12;0.70;99.90
33492;DHT22;20010;51.488;7.232;2022-12-11T12:01:41;0.70;99.90
33492;DHT22;20010;51.488;7.232;2022-12-11T12:04:10;0.70;99.90
33492;DHT22;20010;51.488;7.232;2022-12-11T12:12:45;0.70;99.90
33492;DHT22;20010;51.488;7.232;2022-12-11T12:20:50;0.90;99.90
33492;DHT22;20010;51.488;7.232;2022-12-11T12:28:50;0.90;99.90
33492;DHT22;20010;51.488;7.232;2022-12-11T12:46:05;0.90;99.90
33492;DHT22;20010;51.488;7.232;2022-12-11T12:48:37;0.90;99.90
33492;DHT22;20010;51.488;7.232;2022-12-11T12:51:04;0.90;99.90
33492;DHT22;20010;51.488;7.232;2022-12-11T12:53:33;1.00;99.90
33492;DHT22;20010;51.488;7.232;2022-12-11T12:56:03;1.00;99.90
33492;DHT22;20010;51.488;7.232;2022-12-11T13:01:07;1.00;99.90
33492;DHT22;20010;51.488;7.232;2022-12-11T13:06:47;1.00;99.90
33492;DHT22;20010;51.488;7.232;2022-12-11T13:09:21;1.10;99.90
33492;DHT22;20010;51.488;7.232;2022-12-11T13:11:55;1.20;99.90
33492;DHT22;20010;51.488;7.232;2022-12-11T13:14:31;1.20;99.90
33492;DHT22;20010;51.488;7.232;2022-12-11T13:19:45;1.20;99.90
33492;DHT22;20010;51.488;7.232;2022-12-11T13:27:26;1.20;99.90
33492;DHT22;20010;51.488;7.232;2022-12-11T13:33:00;1.20;99.90
33492;DHT22;20010;51.488;7.232;2022-12-11T13:35:29;1.20;99.90
33492;DHT22;20010;51.488;7.232;2022-12-11T13:38:03;1.20;99.90
33492;DHT22;20010;51.488;7.232;2022-12-11T13:40:37;1.20;99.90
33492;DHT22;20010;51.488;7.232;2022-12-11T13:43:21;1.20;99.90
33492;DHT22;20010;51.488;7.232;2022-12-11T13:45:56;1.20;99.90
33492;DHT22;20010;51.488;7.232;2022-12-11T13:48:37;1.20;99.90
33492;DHT22;20010;51.488;7.232;2022-12-11T13:51:05;1.20;99.90
33492;DHT22;20010;51.488;7.232;2022-12-11T13:53:32;1.10;99.90
33492;DHT22;20010;51.488;7.232;2022-12-11T13:56:04;1.10;99.90
33492;DHT22;20010;51.488;7.232;2022-12-11T13:58:38;1.20;99.90
33492;DHT22;20010;51.488;7.232;2022-12-11T14:01:13;1.10;99.90
33492;DHT22;20010;51.488;7.232;2022-12-11T14:03:47;1.20;99.90
33492;DHT22;20010;51.488;7.232;2022-12-11T14:06:17;1.20;99.90
33492;DHT22;20010;51.488;7.232;2022-12-11T14:08:47;1.20;99.90
33492;DHT22;20010;51.488;7.232;2022-12-11T14:11:29;1.20;99.90
33492;DHT22;20010;51.488;7.232;2022-12-11T14:13:59;1.20;99.90
33492;DHT22;20010;51.488;7.232;2022-12-11T14:16:27;1.20;99.90
33492;DHT22;20010;51.488;7.232;2022-12-11T14:19:00;1.10;99.90
33492;DHT22;20010;51.488;7.232;2022-12-11T14:21:27;1.10;99.90
33492;DHT22;20010;51.488;7.232;2022-12-11T14:23:56;1.20;99.90
33492;DHT22;20010;51.488;7.232;2022-12-11T14:26:31;1.20;99.90
33492;DHT22;20010;51.488;7.232;2022-12-11T14:28:58;1.10;99.90
33492;DHT22;20010;51.488;7.232;2022-12-11T14:31:37;1.10;99.90
33492;DHT22;20010;51.488;7.232;2022-12-11T14:34:13;1.10;99.90
33492;DHT22;20010;51.488;7.232;2022-12-11T14:36:41;1.10;99.90
33492;DHT22;20010;51.488;7.232;2022-12-11T14:39:33;1.10;99.90
33492;DHT22;20010;51.488;7.232;2022-12-11T14:44:35;1.10;99.90
33492;DHT22;20010;51.488;7.232;2022-12-11T14:47:11;1.10;99.90
33492;DHT22;20010;51.488;7.232;2022-12-11T14:52:35;1.20;99.90
33492;DHT22;20010;51.488;7.232;2022-12-11T14:55:07;1.20;99.90
33492;DHT22;20010;51.488;7.232;2022-12-11T14:57:39;1.20;99.90
33492;DHT22;20010;51.488;7.232;2022-12-11T15:00:06;1.10;99.90
33492;DHT22;20010;51.488;7.232;2022-12-11T15:02:35;1.10;99.90
33492;DHT22;20010;51.488;7.232;2022-12-11T15:05:12;1.10;99.90
33492;DHT22;20010;51.488;7.232;2022-12-11T15:07:56;1.10;99.90
33492;DHT22;20010;51.488;7.232;2022-12-11T15:10:27;1.20;99.90
33492;DHT22;20010;51.488;7.232;2022-12-11T15:12:57;1.10;99.90
33492;DHT22;20010;51.488;7.232;2022-12-11T15:15:25;1.20;99.90
33492;DHT22;20010;51.488;7.232;2022-12-11T15:17:53;1.20;99.90
33492;DHT22;20010;51.488;7.232;2022-12-11T15:20:23;1.20;99.90
33492;DHT22;20010;51.488;7.232;2022-12-11T15:22:51;1.20;99.90
33492;DHT22;20010;51.488;7.232;2022-12-11T15:25:24;1.10;99.90
33492;DHT22;20010;51.488;7.232;2022-12-11T15:27:57;1.10;99.90
33492;DHT22;20010;51.488;7.232;2022-12-11T15:30:33;1.10;99.90
33492;DHT22;20010;51.488;7.232;2022-12-11T15:35:37;1.10;99.90
33492;DHT22;20010;51.488;7.232;2022-12-11T15:38:05;1.10;99.90
33492;DHT22;20010;51.488;7.232;2022-12-11T15:40:32;1.10;99.90
33492;DHT22;20010;51.488;7.232;2022-12-11T15:43:00;1.20;99.90
33492;DHT22;20010;51.488;7.232;2022-12-11T15:45:27;1.20;99.90
33492;DHT22;20010;51.488;7.232;2022-12-11T15:47:54;1.20;99.90
33492;DHT22;20010;51.488;7.232;2022-12-11T15:52:49;1.20;99.90
33492;DHT22;20010;51.488;7.232;2022-12-11T15:55:17;1.20;99.90
33492;DHT22;20010;51.488;7.232;2022-12-11T15:57:47;1.20;99.90
33492;DHT22;20010;51.488;7.232;2022-12-11T16:00:16;1.20;99.90
33492;DHT22;20010;51.488;7.232;2022-12-11T16:02:44;1.20;99.90
33492;DHT22;20010;51.488;7.232;2022-12-11T16:05:12;1.20;99.90
33492;DHT22;20010;51.488;7.232;2022-12-11T16:07:39;1.20;99.90
33492;DHT22;20010;51.488;7.232;2022-12-11T16:10:07;1.20;99.90
33492;DHT22;20010;51.488;7.232;2022-12-11T16:12:38;1.20;99.90
33492;DHT22;20010;51.488;7.232;2022-12-11T16:15:05;1.10;99.90
33492;DHT22;20010;51.488;7.232;2022-12-11T16:17:32;1.10;99.90
33492;DHT22;20010;51.488;7.232;2022-12-11T16:19:59;1.10;99.90
33492;DHT22;20010;51.488;7.232;2022-12-11T16:22:26;1.20;99.90
33492;DHT22;20010;51.488;7.232;2022-12-11T16:24:53;1.20;99.90
33492;DHT22;20010;51.488;7.232;2022-12-11T16:27:20;1.10;99.90
33492;DHT22;20010;51.488;7.232;2022-12-11T16:29:49;1.10;99.90
33492;DHT22;20010;51.488;7.232;2022-12-11T16:32:16;1.10;99.90
33492;DHT22;20010;51.488;7.232;2022-12-11T16:34:43;1.10;99.90
33492;DHT22;20010;51.488;7.232;2022-12-11T16:37:10;1.20;99.90
33492;DHT22;20010;51.488;7.232;2022-12-11T16:39:38;1.20;99.90
33492;DHT22;20010;51.488;7.232;2022-12-11T16:42:05;1.20;99.90
33492;DHT22;20010;51.488;7.232;2022-12-11T16:44:32;1.20;99.90
33492;DHT22;20010;51.488;7.232;2022-12-11T16:46:59;1.20;99.90
33492;DHT22;20010;51.488;7.232;2022-12-11T16:49:26;1.20;99.90
33492;DHT22;20010;51.488;7.232;2022-12-11T16:51:52;1.10;99.90
33492;DHT22;20010;51.488;7.232;2022-12-11T16:54:19;1.10;99.90
33492;DHT22;20010;51.488;7.232;2022-12-11T16:56:47;1.20;99.90
33492;DHT22;20010;51.488;7.232;2022-12-11T16:59:14;1.20;99.90
33492;DHT22;20010;51.488;7.232;2022-12-11T17:01:40;1.10;99.90
33492;DHT22;20010;51.488;7.232;2022-12-11T17:04:08;1.20;99.90
33492;DHT22;20010;51.488;7.232;2022-12-11T17:06:35;1.20;99.90
33492;DHT22;20010;51.488;7.232;2022-12-11T17:09:02;1.20;99.90
33492;DHT22;20010;51.488;7.232;2022-12-11T17:11:28;1.20;99.90
33492;DHT22;20010;51.488;7.232;2022-12-11T17:13:57;1.20;99.90
33492;DHT22;20010;51.488;7.232;2022-12-11T17:16:26;1.20;99.90
33492;DHT22;20010;51.488;7.232;2022-12-11T17:18:55;1.20;99.90
33492;DHT22;20010;51.488;7.232;2022-12-11T17:21:23;1.20;99.90
33492;DHT22;20010;51.488;7.232;2022-12-11T17:23:50;1.20;99.90
33492;DHT22;20010;51.488;7.232;2022-12-11T17:26:17;1.20;99.90
33492;DHT22;20010;51.488;7.232;2022-12-11T17:28:44;1.20;99.90
33492;DHT22;20010;51.488;7.232;2022-12-11T17:31:13;1.20;99.90
33492;DHT22;20010;51.488;7.232;2022-12-11T17:33:41;1.20;99.90
33492;DHT22;20010;51.488;7.232;2022-12-11T17:36:12;1.10;99.90
33492;DHT22;20010;51.488;7.232;2022-12-11T17:38:39;1.20;99.90
33492;DHT22;20010;51.488;7.232;2022-12-11T17:41:07;1.20;99.90
33492;DHT22;20010;51.488;7.232;2022-12-11T17:43:34;1.20;99.90
33492;DHT22;20010;51.488;7.232;2022-12-11T17:46:02;1.20;99.90
33492;DHT22;20010;51.488;7.232;2022-12-11T17:48:29;1.10;99.90
33492;DHT22;20010;51.488;7.232;2022-12-11T17:50:56;1.20;99.90
33492;DHT22;20010;51.488;7.232;2022-12-11T17:53:24;1.20;99.90
33492;DHT22;20010;51.488;7.232;2022-12-11T17:55:51;1.20;99.90
33492;DHT22;20010;51.488;7.232;2022-12-11T17:58:21;1.20;99.90
33492;DHT22;20010;51.488;7.232;2022-12-11T18:00:51;1.20;99.90
33492;DHT22;20010;51.488;7.232;2022-12-11T18:03:19;1.20;99.90
33492;DHT22;20010;51.488;7.232;2022-12-11T18:05:49;1.20;99.90
33492;DHT22;20010;51.488;7.232;2022-12-11T18:08:19;1.20;99.90
33492;DHT22;20010;51.488;7.232;2022-12-11T18:10:46;1.10;99.90